Time;durP1;ratioP1;P1;durP2;ratioP2;P2;SDS_P1;SDS_P2;PMS_P1;PMS_P2;Temp;Humidity;BMP_temperature;BMP_pressure;BME280_temperature;BME280_humidity;BME280_pressure;Samples;Min_cycle;Max_cycle;Signal;HPM_P1;HPM_P2
2024/04/08 00:02:25;;;;;;;11.85;4.90;;;16.30;99.90;;;16.81;70.34;100966.88;5514896;26;20017;-67
2024/04/08 00:04:56;;;;;;;15.20;5.15;;;16.30;99.90;;;16.92;69.59;100969.22;5453733;26;20462;-67
2024/04/08 00:07:23;;;;;;;13.88;5.45;;;16.40;99.90;;;16.96;69.27;100957.53;5485919;26;20038;-67
2024/04/08 00:09:53;;;;;;;16.98;5.47;;;16.50;99.90;;;17.02;68.62;100966.25;5485752;26;20335;-66
2024/04/08 00:12:23;;;;;;;13.18;4.80;;;16.50;99.90;;;17.12;67.79;100965.06;5485624;26;20528;-67
2024/04/08 00:14:55;;;;;;;12.07;5.20;;;16.60;99.90;;;17.09;67.29;100962.47;5483862;26;20014;-66
2024/04/08 00:17:23;;;;;;;16.20;5.38;;;16.70;99.90;;;17.11;68.36;100959.78;5483789;26;20058;-67
2024/04/08 00:19:53;;;;;;;15.80;5.47;;;16.60;99.90;;;17.13;68.22;100950.75;5485756;26;20010;-67
2024/04/08 00:22:21;;;;;;;17.10;5.45;;;16.60;99.90;;;17.10;68.28;100948.19;5485288;26;20082;-68
2024/04/08 00:24:54;;;;;;;16.80;5.32;;;16.60;99.90;;;17.15;67.98;100946.25;5453240;26;20025;-67
2024/04/08 00:27:24;;;;;;;12.93;5.47;;;16.60;99.90;;;17.16;68.28;100947.13;5485389;26;20082;-68
2024/04/08 00:29:54;;;;;;;11.98;4.93;;;16.70;99.90;;;17.08;68.61;100952.72;5485310;26;20002;-67
2024/04/08 00:32:23;;;;;;;13.20;5.13;;;16.60;99.90;;;16.53;68.38;100844.84;5485338;26;20016;-67
2024/04/08 00:34:53;;;;;;;10.90;4.70;;;16.60;99.90;;;17.15;68.12;100946.25;5485230;26;20013;-67
2024/04/08 00:37:20;;;;;;;18.00;5.63;;;16.60;99.90;;;17.22;67.87;100943.38;5485243;26;20038;-67
2024/04/08 00:39:50;;;;;;;15.93;4.97;;;16.60;99.90;;;17.06;68.23;100943.84;5485847;26;20013;-66
2024/04/08 00:42:18;;;;;;;14.68;4.82;;;16.60;99.90;;;17.03;67.81;100938.59;5487036;26;20077;-67
2024/04/08 00:44:51;;;;;;;13.48;5.18;;;16.50;99.90;;;17.15;67.80;100937.34;5488699;26;20021;-67
2024/04/08 00:47:19;;;;;;;17.67;5.72;;;16.70;99.90;;;17.18;67.12;100939.94;5488640;26;20002;-67
2024/04/08 00:49:49;;;;;;;13.63;5.35;;;16.60;99.90;;;17.17;67.49;100942.66;5488572;26;20017;-69
2024/04/08 00:52:17;;;;;;;13.13;5.43;;;16.70;99.90;;;17.27;68.07;100945.00;5488632;26;20002;-67
2024/04/08 00:54:48;;;;;;;18.23;5.57;;;16.70;99.90;;;17.19;67.92;100936.31;5456512;26;20002;-66
2024/04/08 00:57:17;;;;;;;14.18;5.72;;;16.70;99.90;;;17.28;68.30;100943.22;5456425;26;20347;-66
2024/04/08 00:59:51;;;;;;;12.00;5.10;;;16.70;99.90;;;17.32;67.41;100944.88;5488465;26;20528;-68
2024/04/08 01:02:18;;;;;;;13.77;5.20;;;16.80;99.90;;;17.36;66.93;100944.72;5488477;26;20002;-67
2024/04/08 01:04:49;;;;;;;17.83;5.57;;;16.80;99.90;;;17.41;65.87;100947.25;5488211;26;20002;-67
2024/04/08 01:07:17;;;;;;;13.55;5.55;;;16.90;99.90;;;17.31;66.31;100927.06;5488406;26;20002;-67
2024/04/08 01:09:47;;;;;;;14.35;5.18;;;16.90;99.90;;;17.43;66.10;100940.06;5488357;26;20332;-67
2024/04/08 01:12:14;;;;;;;15.95;6.03;;;16.90;99.90;;;17.40;67.02;100938.34;5488560;26;20470;-67
2024/04/08 01:14:46;;;;;;;13.15;4.95;;;16.90;99.90;;;17.37;69.05;100930.44;5488366;26;20078;-67
2024/04/08 01:20:28;;;;;;;10.48;4.55;;;16.70;99.90;;;17.29;68.85;100936.91;5046528;28;20007;-68
2024/04/08 01:22:59;;;;;;;12.93;4.40;;;16.70;99.90;;;17.26;68.52;100950.41;5049103;28;20055;-65
2024/04/08 01:25:32;;;;;;;13.38;5.75;;;16.70;99.90;;;17.21;67.93;100922.94;5049463;28;20029;-66
2024/04/08 01:28:01;;;;;;;11.57;5.05;;;16.60;99.90;;;17.17;68.21;100915.94;5073176;28;20023;-64
2024/04/08 01:30:31;;;;;;;13.20;5.50;;;16.60;99.90;;;16.93;68.98;100906.84;5047008;28;20025;-66
2024/04/08 01:32:58;;;;;;;16.08;5.53;;;16.40;99.90;;;16.80;69.60;100905.47;5048831;28;20025;-65
2024/04/08 01:35:28;;;;;;;15.02;4.93;;;16.20;99.90;;;16.88;70.22;100906.09;5048679;28;20011;-67
2024/04/08 01:37:56;;;;;;;13.13;5.72;;;16.30;99.90;;;16.93;69.40;100901.50;5048819;28;20027;-65
2024/04/08 01:40:26;;;;;;;17.25;5.93;;;16.40;99.90;;;16.97;69.11;100909.41;5046916;28;20026;-66
2024/04/08 01:42:56;;;;;;;10.10;4.72;;;16.40;99.90;;;16.99;68.32;100907.53;5048628;28;20326;-66
2024/04/08 01:45:27;;;;;;;10.95;4.95;;;16.50;99.90;;;16.96;67.97;100907.63;5048543;28;20455;-66
2024/04/08 01:47:54;;;;;;;14.57;5.32;;;16.40;99.90;;;16.96;67.78;100904.06;5046874;28;20019;-67
2024/04/08 01:50:24;;;;;;;12.48;5.20;;;16.40;99.90;;;16.87;68.21;100921.28;5072766;28;20019;-64
2024/04/08 01:52:52;;;;;;;13.52;5.38;;;16.40;99.90;;;16.76;68.97;100893.13;5048202;28;20023;-65
2024/04/08 01:55:22;;;;;;;15.27;5.50;;;16.30;99.90;;;16.64;69.84;100888.13;5048167;28;20026;-67
2024/04/08 01:57:51;;;;;;;14.93;5.30;;;16.20;99.90;;;16.20;71.96;100884.00;5072806;28;20468;-66
2024/04/08 02:00:24;;;;;;;15.15;5.18;;;15.80;99.90;;;16.09;73.05;100894.97;5048343;28;20011;-64
2024/04/08 02:02:52;;;;;;;18.10;5.72;;;15.60;99.90;;;16.09;73.34;100889.63;5046386;28;20011;-65
2024/04/08 02:05:22;;;;;;;13.45;5.22;;;15.60;99.90;;;16.06;73.72;100899.50;5048252;28;20015;-64
2024/04/08 02:07:50;;;;;;;10.48;5.05;;;15.60;99.90;;;16.01;74.51;100888.06;5048333;28;20457;-63
2024/04/08 02:10:20;;;;;;;15.55;5.47;;;15.50;99.90;;;15.78;75.32;100871.75;5048465;28;20536;-63
2024/04/08 02:12:49;;;;;;;16.73;6.03;;;15.50;99.90;;;16.00;75.50;100905.00;5048174;28;20015;-65
2024/04/08 02:15:19;;;;;;;12.20;5.63;;;15.50;99.90;;;16.03;75.09;100896.91;5048204;28;20145;-65
2024/04/08 02:17:49;;;;;;;11.68;5.20;;;15.60;99.90;;;15.99;75.51;100885.44;5048184;28;20012;-65
2024/04/08 02:20:20;;;;;;;15.35;5.25;;;15.60;99.90;;;16.02;75.53;100890.72;5108767;28;20028;-63
2024/04/08 02:22:47;;;;;;;17.63;5.90;;;15.60;99.90;;;15.46;75.27;100781.97;5110868;28;20839;-66
2024/04/08 02:25:17;;;;;;;16.02;5.70;;;15.60;99.90;;;16.15;75.29;100893.91;5111121;28;20453;-65
2024/04/08 02:27:45;;;;;;;13.07;6.10;;;15.70;99.90;;;15.78;74.98;100813.97;5110987;28;20010;-65
2024/04/08 02:30:15;;;;;;;12.13;6.25;;;15.70;99.90;;;16.30;74.90;100876.63;5110764;28;20025;-64
2024/04/08 02:32:43;;;;;;;13.32;5.60;;;15.80;99.90;;;16.43;74.96;100864.66;5083174;28;20024;-64
2024/04/08 02:35:16;;;;;;;16.10;5.85;;;15.90;99.90;;;16.23;74.56;100827.84;5111541;28;20337;-65
2024/04/08 02:37:44;;;;;;;14.93;5.45;;;16.00;99.90;;;16.51;74.32;100871.56;5111057;28;20010;-65
2024/04/08 02:40:14;;;;;;;14.00;6.03;;;16.10;99.90;;;16.40;75.12;100872.75;5110817;28;20341;-66
2024/04/08 02:42:42;;;;;;;20.95;6.38;;;16.00;99.90;;;16.43;74.70;100884.25;5110713;28;20020;-66
2024/04/08 02:45:13;;;;;;;13.88;6.18;;;15.90;99.90;;;15.74;74.82;100764.28;5110756;28;20377;-64
2024/04/08 02:47:41;;;;;;;11.88;5.45;;;15.90;99.90;;;16.40;74.75;100883.44;5110909;28;20009;-65
2024/04/08 02:50:11;;;;;;;15.77;6.32;;;15.90;99.90;;;16.38;75.25;100885.25;5109245;28;20435;-64
2024/04/08 02:52:41;;;;;;;13.20;6.00;;;15.90;99.90;;;16.33;75.34;100880.06;5111410;28;20010;-65
2024/04/08 02:55:11;;;;;;;15.23;6.32;;;15.90;99.90;;;16.29;75.87;100875.75;5110809;28;20010;-65
2024/04/08 02:57:39;;;;;;;13.93;5.60;;;15.80;99.90;;;15.71;76.06;100769.72;5110653;28;20377;-63
2024/04/08 03:00:10;;;;;;;10.20;5.45;;;15.80;99.90;;;16.19;76.87;100867.09;5110754;28;20112;-66
2024/04/08 03:02:38;;;;;;;15.32;5.75;;;15.70;99.90;;;16.10;77.47;100863.81;5110562;27;20089;-64
2024/04/08 03:05:08;;;;;;;16.52;5.47;;;15.70;99.90;;;16.03;78.08;100856.88;5109047;28;20067;-66
2024/04/08 03:07:36;;;;;;;12.93;5.88;;;15.60;99.90;;;15.94;79.22;100859.78;5110757;28;20010;-63
2024/04/08 03:10:09;;;;;;;15.05;5.85;;;15.40;99.90;;;15.88;79.89;100854.63;5110482;28;20010;-65
2024/04/08 03:12:37;;;;;;;16.48;5.60;;;15.40;99.90;;;15.70;80.95;100858.63;5110681;28;20050;-63
2024/04/08 03:15:09;;;;;;;10.65;5.32;;;15.30;99.90;;;15.71;81.84;100854.19;5110351;28;20025;-65
2024/04/08 03:17:36;;;;;;;14.35;5.97;;;15.20;99.90;;;15.51;82.69;100840.47;5110476;28;20637;-63
2024/04/08 03:20:08;;;;;;;11.32;5.22;;;15.10;99.90;;;15.49;83.84;100840.50;5110494;28;20018;-63
2024/04/08 03:22:35;;;;;;;13.02;5.95;;;15.00;99.90;;;15.42;84.70;100830.94;5110381;27;20021;-67
2024/04/08 03:25:09;;;;;;;11.48;6.10;;;15.00;99.90;;;15.47;85.16;100830.78;5110250;28;20014;-64
2024/04/08 03:27:36;;;;;;;11.80;5.28;;;15.00;99.90;;;15.36;86.07;100823.94;5110274;28;20010;-63
2024/04/08 03:30:08;;;;;;;11.85;6.60;;;15.00;99.90;;;15.43;86.86;100827.31;5110240;28;20044;-66
2024/04/08 03:32:36;;;;;;;15.40;6.32;;;15.00;99.90;;;15.26;87.85;100800.19;5110248;28;20010;-66
2024/04/08 03:35:07;;;;;;;16.38;6.32;;;14.90;99.90;;;15.33;88.73;100817.78;5109982;28;20606;-63
2024/04/08 03:37:37;;;;;;;11.82;5.43;;;14.90;99.90;;;15.37;89.31;100815.00;5110204;28;20014;-65
2024/04/08 03:40:11;;;;;;;16.98;6.13;;;14.90;99.90;;;15.32;90.00;100810.69;5110143;28;20018;-63
2024/04/08 03:42:41;;;;;;;15.15;6.30;;;14.90;99.90;;;15.25;91.10;100809.97;5110606;28;20010;-67
2024/04/08 03:45:11;;;;;;;13.05;6.32;;;14.80;99.90;;;14.98;92.80;100797.31;5110083;28;20024;-64
2024/04/08 03:47:39;;;;;;;14.80;6.88;;;14.60;99.90;;;14.78;94.21;100783.59;5110019;28;20086;-64
2024/04/08 03:50:09;;;;;;;13.50;7.35;;;14.40;99.90;;;14.72;95.69;100778.41;5109933;28;20021;-68
2024/04/08 03:52:37;;;;;;;11.10;6.88;;;14.30;99.90;;;14.07;96.59;100667.19;5081820;28;20025;-63
2024/04/08 03:55:10;;;;;;;14.30;7.35;;;14.30;99.90;;;14.65;98.03;100779.47;5109877;28;20065;-63
2024/04/08 03:57:38;;;;;;;14.80;7.57;;;14.20;99.90;;;14.68;98.62;100790.03;5108452;27;20009;-65
2024/04/08 04:00:13;;;;;;;15.30;8.38;;;14.20;99.90;;;14.62;99.84;100787.50;5109757;28;20010;-66
2024/04/08 04:02:48;;;;;;;12.85;7.78;;;14.20;99.90;;;14.48;100.00;100774.50;5109776;28;20010;-66
2024/04/08 04:05:19;;;;;;;15.73;9.63;;;14.20;99.90;;;14.79;100.00;100806.63;5109737;28;20057;-64
2024/04/08 04:07:46;;;;;;;16.40;10.77;;;14.30;99.90;;;14.98;100.00;100810.63;5109728;28;20402;-64
2024/04/08 04:10:20;;;;;;;16.58;13.05;;;14.50;99.90;;;15.08;99.94;100804.16;5109542;28;20013;-64
2024/04/08 04:12:47;;;;;;;17.63;14.15;;;14.60;99.90;;;14.96;99.90;100798.28;5109696;28;20021;-66
2024/04/08 04:15:17;;;;;;;16.50;12.80;;;14.60;99.90;;;14.83;100.00;100797.66;5107877;28;20014;-63
2024/04/08 04:17:45;;;;;;;16.08;12.10;;;14.50;99.90;;;14.88;100.00;100806.44;5108981;28;20099;-64
2024/04/08 04:20:18;;;;;;;18.50;12.02;;;14.50;99.90;;;14.95;100.00;100816.03;5081147;28;20029;-65
2024/04/08 04:22:46;;;;;;;15.93;12.27;;;14.50;99.90;;;15.06;100.00;100821.13;5109267;28;20024;-66
2024/04/08 04:25:20;;;;;;;16.83;12.88;;;14.60;99.90;;;15.08;100.00;100825.50;5109404;28;20453;-65
2024/04/08 04:27:48;;;;;;;14.93;10.60;;;14.70;99.90;;;15.14;100.00;100844.00;5107613;27;20117;-65
2024/04/08 04:30:18;;;;;;;17.38;10.57;;;14.80;99.90;;;15.19;100.00;100847.41;5109552;28;20772;-64
2024/04/08 04:32:45;;;;;;;15.15;10.00;;;14.80;99.90;;;15.26;100.00;100840.16;5109385;28;20151;-67
2024/04/08 04:35:16;;;;;;;13.57;9.60;;;14.90;99.90;;;15.31;99.97;100835.63;5109227;28;20022;-64
2024/04/08 04:37:43;;;;;;;13.18;9.45;;;14.90;99.90;;;15.15;99.91;100815.56;5107447;28;20010;-64
2024/04/08 04:40:13;;;;;;;10.90;9.20;;;14.90;99.90;;;15.38;100.00;100851.41;5081123;28;20086;-64
2024/04/08 04:42:46;;;;;;;11.98;9.68;;;15.00;99.90;;;15.48;99.26;100845.88;5109312;28;20449;-65
2024/04/08 04:45:17;;;;;;;16.20;9.88;;;15.10;99.90;;;15.59;98.38;100849.16;5109264;28;20025;-66
2024/04/08 04:47:44;;;;;;;12.77;9.23;;;15.20;99.90;;;15.00;98.17;100744.03;5107255;28;20073;-65
2024/04/08 04:50:14;;;;;;;11.55;9.20;;;15.20;99.90;;;15.74;97.56;100865.66;5109030;28;20184;-65
2024/04/08 04:52:44;;;;;;;10.32;8.20;;;15.30;99.90;;;15.75;97.00;100861.19;5108949;28;20014;-65
2024/04/08 04:55:14;;;;;;;11.47;8.60;;;15.30;99.90;;;15.88;96.48;100867.94;5108956;28;20024;-66
2024/04/08 04:57:44;;;;;;;9.40;8.27;;;15.40;99.90;;;15.96;95.85;100860.63;5109379;28;20010;-65
2024/04/08 05:00:16;;;;;;;12.10;8.85;;;15.50;99.90;;;16.04;95.00;100875.53;5109063;28;20027;-65
2024/04/08 05:02:43;;;;;;;14.75;8.95;;;15.60;99.90;;;16.07;94.98;100878.09;5108821;28;20013;-64
2024/04/08 05:05:13;;;;;;;14.10;9.00;;;15.60;99.90;;;16.09;94.88;100883.41;5108906;28;20090;-66
2024/04/08 05:07:41;;;;;;;18.35;10.15;;;15.70;99.90;;;15.34;94.88;100753.78;5108657;28;20013;-67
2024/04/08 05:10:12;;;;;;;15.02;11.93;;;15.60;99.90;;;16.05;95.19;100879.94;5108514;28;20037;-67
2024/04/08 05:12:39;;;;;;;15.55;12.55;;;15.60;99.90;;;16.05;95.51;100871.06;5108708;28;20017;-64
2024/04/08 05:15:12;;;;;;;16.80;13.20;;;15.60;99.90;;;16.07;95.75;100883.44;5108504;28;20010;-65
2024/04/08 05:17:39;;;;;;;17.30;13.38;;;15.60;99.90;;;15.93;96.56;100876.72;5108916;28;20014;-66
2024/04/08 05:20:10;;;;;;;18.83;13.88;;;15.50;99.90;;;16.00;96.68;100868.53;5108635;28;20014;-65
2024/04/08 05:22:44;;;;;;;17.23;13.82;;;15.50;99.90;;;15.86;97.28;100862.66;5109247;28;20029;-64
2024/04/08 05:25:14;;;;;;;17.50;13.95;;;15.50;99.90;;;15.74;98.05;100854.09;5109009;28;20025;-67
2024/04/08 05:27:41;;;;;;;18.05;13.82;;;15.40;99.90;;;15.60;98.79;100858.91;5108283;28;20063;-65
2024/04/08 05:30:15;;;;;;;18.02;13.75;;;15.20;99.90;;;15.60;99.38;100857.09;5111039;28;20489;-64
2024/04/08 05:32:42;;;;;;;18.85;14.63;;;15.20;99.90;;;15.44;100.00;100866.41;5109763;28;20478;-66
2024/04/08 05:35:12;;;;;;;16.67;14.57;;;15.10;99.90;;;15.23;100.00;100859.75;5109870;28;20010;-64
2024/04/08 05:37:41;;;;;;;19.17;14.88;;;15.00;99.90;;;15.42;100.00;100857.59;5111502;28;20028;-66
2024/04/08 05:40:16;;;;;;;21.60;14.95;;;15.00;99.90;;;15.41;100.00;100868.25;5111429;28;20062;-68
2024/04/08 05:42:46;;;;;;;21.52;15.23;;;15.10;99.90;;;15.51;100.00;100865.34;5083511;28;20086;-65
2024/04/08 05:45:19;;;;;;;22.50;15.13;;;15.10;99.90;;;15.62;100.00;100875.75;5111347;28;20081;-68
2024/04/08 05:47:53;;;;;;;21.27;15.50;;;15.20;99.90;;;15.72;100.00;100878.13;5111821;28;20393;-65
2024/04/08 05:50:24;;;;;;;20.98;14.23;;;15.30;99.90;;;15.84;100.00;100887.63;5111164;28;20010;-65
2024/04/08 05:52:53;;;;;;;22.52;14.85;;;15.40;99.90;;;15.89;100.00;100881.25;5111277;28;20010;-67
2024/04/08 05:55:23;;;;;;;24.30;13.73;;;15.50;99.90;;;15.92;100.00;100878.50;5111452;28;20453;-66
2024/04/08 05:57:50;;;;;;;16.40;12.75;;;15.50;99.90;;;15.96;99.96;100874.84;5111425;28;20404;-68
2024/04/08 06:00:23;;;;;;;19.63;11.77;;;15.50;99.90;;;15.79;99.85;100845.09;5111220;28;20010;-65
2024/04/08 06:02:52;;;;;;;16.92;11.88;;;15.50;99.90;;;15.89;99.37;100843.91;5111086;28;20421;-66
2024/04/08 06:05:24;;;;;;;18.50;11.43;;;15.60;99.90;;;15.95;99.26;100842.88;5111276;28;20037;-70
2024/04/08 06:07:53;;;;;;;13.50;11.02;;;15.70;99.90;;;16.17;98.59;100865.38;5111324;28;20010;-64
2024/04/08 06:10:30;;;;;;;14.48;11.13;;;15.80;99.90;;;16.23;98.06;100870.56;5111263;28;20010;-68
2024/04/08 06:12:59;;;;;;;15.48;11.02;;;15.80;99.90;;;16.41;97.76;100883.41;5111651;28;20021;-64
2024/04/08 06:15:33;;;;;;;17.48;11.57;;;15.90;99.90;;;16.55;97.12;100896.41;5110912;28;20086;-64
2024/04/08 06:18:00;;;;;;;16.70;11.02;;;16.10;99.90;;;16.10;96.52;100799.78;5111351;28;20093;-67
2024/04/08 06:20:33;;;;;;;16.08;11.70;;;16.20;99.90;;;16.66;96.54;100892.50;5111303;28;20022;-68
2024/04/08 06:23:01;;;;;;;17.50;11.80;;;16.20;99.90;;;16.77;96.13;100893.06;5111276;28;20021;-66
2024/04/08 06:25:31;;;;;;;13.75;10.88;;;16.30;99.90;;;16.86;95.53;100898.13;5110970;28;20024;-65
2024/04/08 06:28:03;;;;;;;11.73;10.45;;;16.40;99.90;;;16.90;94.81;100886.44;5111434;28;20018;-65
2024/04/08 06:30:33;;;;;;;13.27;10.88;;;16.50;99.90;;;16.95;94.07;100875.63;5110981;28;20093;-66
2024/04/08 06:33:03;;;;;;;13.70;10.15;;;16.50;99.90;;;17.03;93.73;100866.41;5111048;28;20118;-66
2024/04/08 06:35:31;;;;;;;11.23;9.93;;;16.60;99.90;;;17.08;93.16;100866.28;5111266;28;20433;-65
2024/04/08 06:38:01;;;;;;;11.88;10.05;;;16.60;99.90;;;17.15;92.94;100871.41;5110879;28;20117;-67
2024/04/08 06:40:28;;;;;;;13.32;10.30;;;16.70;99.90;;;17.26;92.93;100870.19;5110580;28;20025;-66
2024/04/08 06:42:58;;;;;;;13.05;9.73;;;16.80;99.90;;;17.32;92.58;100860.19;5110776;28;20734;-65
2024/04/08 06:45:26;;;;;;;10.98;8.80;;;16.90;99.90;;;17.43;91.62;100870.53;5110734;28;20009;-64
2024/04/08 06:48:01;;;;;;;11.05;9.32;;;16.90;99.90;;;17.45;91.30;100876.69;5110774;28;20013;-64
2024/04/08 06:50:32;;;;;;;14.45;9.95;;;17.00;99.90;;;17.52;90.93;100879.16;5109213;28;20021;-64
2024/04/08 06:53:05;;;;;;;10.75;9.20;;;17.10;99.90;;;17.59;90.01;100885.19;5110898;28;20360;-64
2024/04/08 06:55:39;;;;;;;11.27;8.48;;;17.10;99.90;;;17.61;89.79;100886.00;5110964;28;20046;-64
2024/04/08 06:58:14;;;;;;;11.50;9.60;;;17.20;99.90;;;17.61;89.71;100886.00;5110787;28;20030;-66
2024/04/08 07:00:42;;;;;;;13.60;10.13;;;17.10;99.90;;;17.60;89.60;100882.44;5110684;28;20010;-66
2024/04/08 07:03:17;;;;;;;13.50;9.18;;;17.10;99.90;;;17.52;89.33;100876.47;5110572;28;20010;-66
2024/04/08 07:05:46;;;;;;;14.07;9.40;;;17.10;99.90;;;17.30;88.92;100847.78;5110373;28;20475;-66
2024/04/08 07:08:16;;;;;;;11.63;8.50;;;17.10;99.90;;;17.48;88.91;100884.63;5110611;28;20798;-70
2024/04/08 07:10:45;;;;;;;17.08;9.00;;;17.10;99.90;;;17.50;89.11;100877.47;5082561;28;20090;-70
2024/04/08 07:13:17;;;;;;;11.90;9.13;;;17.00;99.90;;;17.48;89.32;100876.63;5110527;28;20022;-71
2024/04/08 07:15:53;;;;;;;13.02;8.60;;;17.00;99.90;;;17.44;89.22;100874.97;5108595;28;20014;-70
2024/04/08 07:18:26;;;;;;;15.18;9.20;;;17.00;99.90;;;16.97;88.91;100796.28;5082044;28;20098;-71
2024/04/08 07:20:53;;;;;;;15.23;9.18;;;17.00;99.90;;;17.50;89.13;100880.16;5108612;28;20010;-72
2024/04/08 07:23:24;;;;;;;16.50;10.13;;;17.10;99.90;;;17.52;88.72;100878.25;5110410;28;20018;-69
2024/04/08 07:25:52;;;;;;;14.25;10.05;;;17.00;99.90;;;17.64;88.55;100881.44;5110424;28;20042;-70
2024/04/08 07:28:23;;;;;;;12.70;9.68;;;17.20;99.90;;;17.63;87.87;100878.81;5110184;28;20424;-72
2024/04/08 07:30:50;;;;;;;14.35;9.25;;;17.20;99.90;;;17.73;88.42;100874.91;5110392;28;20009;-72
2024/04/08 07:33:20;;;;;;;13.85;9.73;;;17.30;99.90;;;17.78;87.85;100862.25;5110086;28;20025;-70
2024/04/08 07:35:51;;;;;;;12.02;10.15;;;17.30;99.90;;;17.89;87.16;100860.06;5110200;28;20018;-68
2024/04/08 07:38:21;;;;;;;14.57;9.52;;;17.40;99.90;;;17.79;86.65;100846.13;5110609;28;20021;-71
2024/04/08 07:40:49;;;;;;;14.02;10.13;;;17.40;99.90;;;17.83;86.42;100836.19;5110123;28;20028;-69
2024/04/08 07:43:19;;;;;;;14.93;9.55;;;17.40;99.90;;;17.79;85.82;100815.81;5110026;28;20006;-68
2024/04/08 07:45:47;;;;;;;12.55;9.95;;;17.50;99.90;;;17.54;86.13;100810.44;5109943;28;20021;-71
2024/04/08 07:48:19;;;;;;;12.48;10.02;;;17.30;99.90;;;17.71;86.75;100833.97;5109952;28;20018;-70
2024/04/08 07:50:47;;;;;;;14.15;10.80;;;17.30;99.90;;;17.53;86.96;100792.66;5109830;28;20020;-68
2024/04/08 07:53:20;;;;;;;15.65;10.02;;;17.10;99.90;;;17.05;88.03;100795.09;5109345;28;20441;-70
2024/04/08 07:55:47;;;;;;;14.73;9.93;;;16.70;99.90;;;17.37;88.73;100806.53;5109974;28;20010;-69
2024/04/08 07:58:18;;;;;;;12.15;9.50;;;16.80;99.90;;;17.51;88.45;100807.00;5109902;28;20013;-70
2024/04/08 08:00:56;;;;;;;12.50;9.27;;;16.90;99.90;;;17.66;86.38;100804.66;5109864;28;20025;-68
2024/04/08 08:03:27;;;;;;;13.15;9.60;;;17.20;99.90;;;17.82;85.64;100802.34;5110066;28;20029;-72
2024/04/08 08:05:56;;;;;;;14.77;10.38;;;17.30;99.90;;;17.95;84.98;100809.00;5081415;28;20573;-68
2024/04/08 08:08:32;;;;;;;12.25;10.68;;;17.50;99.90;;;17.82;84.40;100768.44;5109608;28;20042;-69
2024/04/08 08:11:04;;;;;;;13.32;9.73;;;17.60;99.90;;;18.27;83.98;100830.16;5109907;28;20695;-68
2024/04/08 08:13:35;;;;;;;12.30;10.48;;;17.80;99.90;;;18.50;83.35;100834.69;5109967;28;20010;-68
2024/04/08 08:16:05;;;;;;;12.85;9.68;;;18.00;99.90;;;18.39;81.88;100813.59;5109937;28;20349;-70
2024/04/08 08:18:35;;;;;;;13.93;9.80;;;18.10;99.90;;;18.49;81.80;100803.44;5109707;28;20533;-68
2024/04/08 08:21:06;;;;;;;12.25;10.57;;;18.10;99.90;;;17.97;81.71;100823.19;5110083;28;20096;-70
2024/04/08 08:23:39;;;;;;;13.48;10.13;;;17.80;99.90;;;18.17;82.83;100818.03;5109405;28;20017;-69
2024/04/08 08:26:07;;;;;;;13.10;9.77;;;17.70;99.90;;;18.26;82.12;100796.25;5109733;28;20021;-70
2024/04/08 08:28:37;;;;;;;15.18;11.00;;;17.90;99.90;;;18.19;83.57;100821.53;5108908;28;20010;-69
2024/04/08 08:31:07;;;;;;;13.70;10.95;;;17.70;99.90;;;18.42;82.49;100829.63;5108952;28;20010;-68
2024/04/08 08:33:39;;;;;;;16.23;11.00;;;17.90;99.90;;;18.27;82.37;100823.91;5109155;28;20018;-69
2024/04/08 08:36:09;;;;;;;15.40;10.77;;;17.90;99.90;;;18.18;83.03;100814.41;5109200;28;20417;-71
2024/04/08 08:38:40;;;;;;;14.88;10.68;;;17.70;99.90;;;18.36;82.21;100800.34;5109018;28;20010;-68
2024/04/08 08:41:11;;;;;;;14.02;11.00;;;18.00;99.90;;;17.86;82.66;100697.81;5109285;28;20459;-70
2024/04/08 08:43:40;;;;;;;14.90;10.45;;;18.10;99.90;;;17.79;83.82;100808.66;5107408;28;20094;-69
2024/04/08 08:46:12;;;;;;;15.57;10.63;;;17.60;99.90;;;17.49;86.67;100787.44;5109078;28;20050;-76
2024/04/08 08:48:41;;;;;;;14.00;11.15;;;17.20;99.90;;;18.16;86.09;100805.53;5108910;28;20106;-77
2024/04/08 08:51:13;;;;;;;12.18;10.30;;;17.60;99.90;;;17.53;85.38;100802.47;5109093;28;20014;-72
2024/04/08 08:53:44;;;;;;;14.88;10.35;;;17.40;99.90;;;17.78;87.16;100798.03;5109233;28;20006;-75
2024/04/08 08:56:17;;;;;;;13.20;10.00;;;17.30;99.90;;;18.08;85.70;100796.06;5109047;28;20038;-71
2024/04/08 08:58:52;;;;;;;15.38;9.63;;;17.60;99.90;;;17.40;84.61;100752.97;5109180;28;20025;-81
2024/04/08 09:01:23;;;;;;;11.65;8.20;;;17.30;99.90;;;17.00;86.05;100789.03;5080958;28;20010;-77
2024/04/08 09:03:53;;;;;;;11.40;7.63;;;16.80;99.90;;;16.63;86.14;100764.38;5111272;28;20090;-71
2024/04/08 09:06:23;;;;;;;10.48;7.82;;;16.40;99.90;;;17.28;85.95;100786.34;5110090;28;20024;-68
2024/04/08 09:08:53;;;;;;;11.65;9.00;;;16.70;99.90;;;16.81;85.34;100782.53;5112580;28;20036;-70
2024/04/08 09:11:23;;;;;;;12.15;9.48;;;16.60;99.90;;;17.14;86.94;100785.91;5111927;28;20308;-68
2024/04/08 09:13:51;;;;;;;13.45;7.60;;;16.70;99.90;;;17.43;83.76;100787.63;5112099;28;20086;-68
2024/04/08 09:16:24;;;;;;;15.50;12.02;;;17.00;99.90;;;17.22;88.18;100775.84;5111658;28;20010;-70
2024/04/08 09:18:53;;;;;;;12.13;9.43;;;17.00;99.90;;;17.36;84.56;100796.78;5111591;28;20021;-69
2024/04/08 09:21:23;;;;;;;13.93;9.70;;;17.00;99.90;;;16.98;85.99;100809.59;5111597;28;20025;-68
2024/04/08 09:24:04;;;;;;;14.60;9.40;;;16.70;99.90;;;16.87;87.72;100808.16;5111735;28;20009;-69
2024/04/08 09:26:34;;;;;;;16.25;11.90;;;16.50;99.90;;;16.77;87.79;100804.91;5109838;28;20010;-69
2024/04/08 09:29:02;;;;;;;;;;;16.40;99.90;;;16.60;87.43;100801.00;5112465;28;20065;-71
2024/04/08 09:31:32;;;;;;;18.27;10.00;;;16.20;99.90;;;16.81;87.80;100795.88;5111422;28;20025;-69
2024/04/08 09:34:01;;;;;;;11.90;6.90;;;16.40;99.90;;;16.78;86.93;100819.16;5111798;28;20174;-68
2024/04/08 09:36:33;;;;;;;13.35;9.23;;;16.40;99.90;;;16.84;85.14;100809.13;5111794;28;20475;-70
2024/04/08 09:39:05;;;;;;;13.65;8.77;;;16.50;99.90;;;16.86;86.18;100788.59;5111548;28;20090;-68
2024/04/08 09:41:38;;;;;;;10.77;9.02;;;16.50;99.90;;;16.78;86.65;100757.72;5111511;28;20022;-69
2024/04/08 09:44:09;;;;;;;14.48;9.48;;;16.60;99.90;;;17.07;85.94;100776.34;5083419;28;20086;-72
2024/04/08 09:46:40;;;;;;;12.73;8.00;;;16.60;99.90;;;17.21;86.02;100751.84;5111412;27;20413;-72
2024/04/08 09:49:13;;;;;;;13.07;10.10;;;16.90;99.90;;;17.15;84.75;100776.94;5109678;28;20009;-70
2024/04/08 09:51:52;;;;;;;14.40;10.80;;;16.90;99.90;;;17.15;86.07;100790.31;5111292;28;20468;-69
2024/04/08 09:54:25;;;;;;;13.45;9.80;;;16.70;99.90;;;16.83;86.68;100700.53;5111468;28;20010;-71
2024/04/08 09:56:58;;;;;;;11.95;9.95;;;16.90;99.90;;;17.26;86.34;100773.94;5109695;28;20352;-69
2024/04/08 09:59:30;;;;;;;13.63;8.00;;;17.00;99.90;;;17.42;84.07;100807.28;5111452;27;20357;-72
2024/04/08 10:01:58;;;;;;;9.13;7.65;;;17.10;99.90;;;17.45;83.68;100804.50;5111332;28;20009;-68
2024/04/08 10:04:40;;;;;;;10.27;7.07;;;17.10;99.90;;;17.25;83.74;100798.94;5111786;28;20071;-70
2024/04/08 10:07:08;;;;;;;8.63;6.68;;;16.90;99.90;;;17.39;83.14;100791.31;5111811;28;20038;-70
2024/04/08 10:09:41;;;;;;;8.15;6.65;;;17.00;99.90;;;17.28;85.54;100797.03;5109306;28;20010;-69
2024/04/08 10:12:09;;;;;;;11.13;7.35;;;17.00;99.90;;;16.46;85.70;100713.25;5111170;28;20022;-70
2024/04/08 10:14:40;;;;;;;10.43;7.18;;;16.70;99.90;;;16.98;83.99;100798.88;5109818;28;20010;-71
2024/04/08 10:17:09;;;;;;;10.45;7.25;;;16.60;99.90;;;17.17;83.93;100776.94;5111163;28;20353;-69
2024/04/08 10:19:39;;;;;;;10.85;7.50;;;16.80;99.90;;;17.17;85.43;100792.97;5110771;28;20017;-69